sensor_id;sensor_type;location;lat;lon;timestamp;pressure;altitude;pressure_sealevel;temperature;humidity
33280;BME280;20403;43.114;12.434;2023-05-12T00:01:24;98836.53;;;12.38;100.00
33280;BME280;20403;43.114;12.434;2023-05-12T00:03:50;98837.88;;;12.40;100.00
33280;BME280;20403;43.114;12.434;2023-05-12T00:06:18;98835.38;;;12.46;100.00
33280;BME280;20403;43.114;12.434;2023-05-12T00:08:43;98835.97;;;12.53;100.00
33280;BME280;20403;43.114;12.434;2023-05-12T00:11:09;98827.34;;;12.52;100.00
33280;BME280;20403;43.114;12.434;2023-05-12T00:13:34;98830.44;;;12.49;100.00
33280;BME280;20403;43.114;12.434;2023-05-12T00:16:01;98833.22;;;12.43;100.00
33280;BME280;20403;43.114;12.434;2023-05-12T00:18:26;98832.59;;;12.35;100.00
33280;BME280;20403;43.114;12.434;2023-05-12T00:20:52;98832.50;;;12.30;100.00
33280;BME280;20403;43.114;12.434;2023-05-12T00:23:19;98830.28;;;12.39;100.00
33280;BME280;20403;43.114;12.434;2023-05-12T00:25:44;98831.09;;;12.39;100.00
33280;BME280;20403;43.114;12.434;2023-05-12T00:28:10;98829.41;;;12.33;100.00
33280;BME280;20403;43.114;12.434;2023-05-12T00:30:35;98830.63;;;12.26;100.00
33280;BME280;20403;43.114;12.434;2023-05-12T00:33:01;98829.91;;;12.30;100.00
33280;BME280;20403;43.114;12.434;2023-05-12T00:35:27;98824.28;;;12.38;100.00
33280;BME280;20403;43.114;12.434;2023-05-12T00:37:52;98825.34;;;12.43;100.00
33280;BME280;20403;43.114;12.434;2023-05-12T00:40:18;98825.06;;;12.39;100.00
33280;BME280;20403;43.114;12.434;2023-05-12T00:42:43;98829.97;;;12.35;100.00
33280;BME280;20403;43.114;12.434;2023-05-12T00:45:09;98826.19;;;12.26;100.00
33280;BME280;20403;43.114;12.434;2023-05-12T00:47:35;98828.16;;;12.19;100.00
33280;BME280;20403;43.114;12.434;2023-05-12T00:50:02;98817.22;;;12.22;100.00
33280;BME280;20403;43.114;12.434;2023-05-12T00:52:28;98817.88;;;12.12;100.00
33280;BME280;20403;43.114;12.434;2023-05-12T00:54:54;98822.53;;;12.10;100.00
33280;BME280;20403;43.114;12.434;2023-05-12T00:57:21;98818.56;;;12.08;100.00
33280;BME280;20403;43.114;12.434;2023-05-12T00:59:46;98812.00;;;12.05;100.00
33280;BME280;20403;43.114;12.434;2023-05-12T01:02:12;98809.41;;;12.05;100.00
33280;BME280;20403;43.114;12.434;2023-05-12T01:04:38;98813.13;;;12.09;100.00
33280;BME280;20403;43.114;12.434;2023-05-12T01:07:37;98797.34;;;11.87;100.00
33280;BME280;20403;43.114;12.434;2023-05-12T01:09:57;98808.56;;;11.71;100.00
33280;BME280;20403;43.114;12.434;2023-05-12T01:12:24;98812.19;;;11.70;100.00
33280;BME280;20403;43.114;12.434;2023-05-12T01:14:51;98813.63;;;11.61;100.00
33280;BME280;20403;43.114;12.434;2023-05-12T01:17:24;98814.41;;;11.61;100.00
33280;BME280;20403;43.114;12.434;2023-05-12T01:20:00;98817.34;;;11.65;100.00
33280;BME280;20403;43.114;12.434;2023-05-12T01:22:28;98818.53;;;11.74;100.00
33280;BME280;20403;43.114;12.434;2023-05-12T01:25:03;98817.28;;;11.76;100.00
33280;BME280;20403;43.114;12.434;2023-05-12T01:27:29;98816.19;;;11.89;100.00
33280;BME280;20403;43.114;12.434;2023-05-12T01:29:57;98820.41;;;11.90;100.00
33280;BME280;20403;43.114;12.434;2023-05-12T01:32:23;98817.91;;;11.84;100.00
33280;BME280;20403;43.114;12.434;2023-05-12T01:34:48;98817.13;;;11.83;100.00
33280;BME280;20403;43.114;12.434;2023-05-12T01:37:15;98824.31;;;11.76;100.00
33280;BME280;20403;43.114;12.434;2023-05-12T01:39:40;98821.16;;;11.74;100.00
33280;BME280;20403;43.114;12.434;2023-05-12T01:42:06;98816.88;;;11.68;100.00
33280;BME280;20403;43.114;12.434;2023-05-12T01:44:32;98811.38;;;11.52;100.00
33280;BME280;20403;43.114;12.434;2023-05-12T01:46:57;98806.16;;;11.52;100.00
33280;BME280;20403;43.114;12.434;2023-05-12T01:49:23;98810.66;;;11.57;100.00
33280;BME280;20403;43.114;12.434;2023-05-12T01:51:48;98807.34;;;11.62;100.00
33280;BME280;20403;43.114;12.434;2023-05-12T01:54:14;98815.13;;;11.73;100.00
33280;BME280;20403;43.114;12.434;2023-05-12T01:56:39;98815.31;;;11.84;100.00
33280;BME280;20403;43.114;12.434;2023-05-12T01:59:05;98820.41;;;11.90;100.00
33280;BME280;20403;43.114;12.434;2023-05-12T02:01:31;98817.44;;;11.87;100.00
33280;BME280;20403;43.114;12.434;2023-05-12T02:03:57;98819.19;;;11.81;100.00
33280;BME280;20403;43.114;12.434;2023-05-12T02:06:23;98813.22;;;11.97;100.00
33280;BME280;20403;43.114;12.434;2023-05-12T02:08:49;98820.63;;;12.06;100.00
33280;BME280;20403;43.114;12.434;2023-05-12T02:11:15;98818.16;;;11.99;100.00
33280;BME280;20403;43.114;12.434;2023-05-12T02:13:40;98816.38;;;12.16;100.00
33280;BME280;20403;43.114;12.434;2023-05-12T02:16:08;98814.59;;;12.22;100.00
33280;BME280;20403;43.114;12.434;2023-05-12T02:18:34;98815.66;;;12.21;100.00
33280;BME280;20403;43.114;12.434;2023-05-12T02:21:00;98820.09;;;12.21;100.00
33280;BME280;20403;43.114;12.434;2023-05-12T02:23:26;98817.78;;;12.24;100.00
33280;BME280;20403;43.114;12.434;2023-05-12T02:25:51;98817.94;;;12.34;100.00
33280;BME280;20403;43.114;12.434;2023-05-12T02:28:16;98825.78;;;12.34;100.00
33280;BME280;20403;43.114;12.434;2023-05-12T02:30:45;98810.84;;;12.52;100.00
33280;BME280;20403;43.114;12.434;2023-05-12T02:33:13;98803.97;;;12.46;100.00
33280;BME280;20403;43.114;12.434;2023-05-12T02:35:39;98819.34;;;12.42;100.00
33280;BME280;20403;43.114;12.434;2023-05-12T02:38:04;98816.59;;;12.32;100.00
33280;BME280;20403;43.114;12.434;2023-05-12T02:40:29;98817.00;;;12.24;100.00
33280;BME280;20403;43.114;12.434;2023-05-12T02:42:55;98804.63;;;12.19;100.00
33280;BME280;20403;43.114;12.434;2023-05-12T02:45:20;98811.38;;;12.15;100.00
33280;BME280;20403;43.114;12.434;2023-05-12T02:47:46;98813.13;;;12.09;100.00
33280;BME280;20403;43.114;12.434;2023-05-12T02:50:11;98820.81;;;12.16;100.00
33280;BME280;20403;43.114;12.434;2023-05-12T02:52:37;98824.44;;;12.15;100.00
33280;BME280;20403;43.114;12.434;2023-05-12T02:55:02;98817.78;;;12.24;100.00
33280;BME280;20403;43.114;12.434;2023-05-12T02:57:27;98814.31;;;12.18;100.00
33280;BME280;20403;43.114;12.434;2023-05-12T02:59:58;98823.97;;;12.18;100.00
33280;BME280;20403;43.114;12.434;2023-05-12T03:02:24;98814.63;;;12.05;100.00
33280;BME280;20403;43.114;12.434;2023-05-12T03:04:49;98820.81;;;12.16;100.00
33280;BME280;20403;43.114;12.434;2023-05-12T03:07:15;98823.97;;;12.18;100.00
33280;BME280;20403;43.114;12.434;2023-05-12T03:09:40;98821.38;;;12.18;100.00
33280;BME280;20403;43.114;12.434;2023-05-12T03:12:06;98816.44;;;12.22;100.00
33280;BME280;20403;43.114;12.434;2023-05-12T03:14:32;98818.03;;;12.23;100.00
33280;BME280;20403;43.114;12.434;2023-05-12T03:16:57;98818.25;;;12.21;100.00
33280;BME280;20403;43.114;12.434;2023-05-12T03:19:23;98822.53;;;12.27;100.00
33280;BME280;20403;43.114;12.434;2023-05-12T03:21:48;98818.09;;;12.28;100.00
33280;BME280;20403;43.114;12.434;2023-05-12T03:24:13;98819.78;;;12.34;100.00
33280;BME280;20403;43.114;12.434;2023-05-12T03:26:39;98809.53;;;12.32;100.00
33280;BME280;20403;43.114;12.434;2023-05-12T03:29:05;98813.66;;;12.28;100.00
33280;BME280;20403;43.114;12.434;2023-05-12T03:31:30;98806.13;;;12.32;100.00
33280;BME280;20403;43.114;12.434;2023-05-12T03:33:56;98813.72;;;12.33;100.00
33280;BME280;20403;43.114;12.434;2023-05-12T03:36:21;98808.88;;;12.42;100.00
33280;BME280;20403;43.114;12.434;2023-05-12T03:38:47;98804.75;;;12.46;100.00
33280;BME280;20403;43.114;12.434;2023-05-12T03:41:13;98804.03;;;12.51;100.00
33280;BME280;20403;43.114;12.434;2023-05-12T03:43:38;98809.16;;;12.63;100.00
33280;BME280;20403;43.114;12.434;2023-05-12T03:46:04;98802.44;;;12.67;100.00
33280;BME280;20403;43.114;12.434;2023-05-12T03:48:30;98800.66;;;12.72;100.00
33280;BME280;20403;43.114;12.434;2023-05-12T03:50:55;98810.38;;;12.77;100.00
33280;BME280;20403;43.114;12.434;2023-05-12T03:53:21;98799.19;;;12.81;100.00
33280;BME280;20403;43.114;12.434;2023-05-12T03:55:46;98804.47;;;12.87;100.00
33280;BME280;20403;43.114;12.434;2023-05-12T03:58:11;98804.84;;;12.95;100.00
33280;BME280;20403;43.114;12.434;2023-05-12T04:00:37;98806.25;;;13.03;100.00
33280;BME280;20403;43.114;12.434;2023-05-12T04:03:02;98809.97;;;13.07;100.00
33280;BME280;20403;43.114;12.434;2023-05-12T04:05:28;98804.50;;;13.09;100.00
33280;BME280;20403;43.114;12.434;2023-05-12T04:07:53;98807.28;;;13.02;100.00
33280;BME280;20403;43.114;12.434;2023-05-12T04:10:19;98799.53;;;13.12;100.00
33280;BME280;20403;43.114;12.434;2023-05-12T04:12:44;98793.56;;;13.17;100.00
33280;BME280;20403;43.114;12.434;2023-05-12T04:15:10;98800.44;;;13.23;100.00
33280;BME280;20403;43.114;12.434;2023-05-12T04:17:35;98802.03;;;13.24;100.00
33280;BME280;20403;43.114;12.434;2023-05-12T04:20:01;98801.00;;;13.25;100.00
33280;BME280;20403;43.114;12.434;2023-05-12T04:22:26;98803.16;;;13.28;100.00
33280;BME280;20403;43.114;12.434;2023-05-12T04:24:52;98800.53;;;13.28;100.00
33280;BME280;20403;43.114;12.434;2023-05-12T04:27:17;98801.34;;;13.29;100.00
33280;BME280;20403;43.114;12.434;2023-05-12T04:29:42;98804.75;;;13.29;100.00
33280;BME280;20403;43.114;12.434;2023-05-12T04:32:08;98808.94;;;13.30;100.00
33280;BME280;20403;43.114;12.434;2023-05-12T04:34:34;98806.00;;;13.27;100.00
33280;BME280;20403;43.114;12.434;2023-05-12T04:37:00;98813.38;;;13.30;100.00
33280;BME280;20403;43.114;12.434;2023-05-12T04:39:27;98806.88;;;13.10;100.00
33280;BME280;20403;43.114;12.434;2023-05-12T04:41:52;98812.84;;;13.06;100.00
33280;BME280;20403;43.114;12.434;2023-05-12T04:44:18;98815.69;;;13.04;100.00
33280;BME280;20403;43.114;12.434;2023-05-12T04:46:43;98815.88;;;12.97;100.00
33280;BME280;20403;43.114;12.434;2023-05-12T04:49:09;98817.44;;;12.98;100.00
33280;BME280;20403;43.114;12.434;2023-05-12T04:51:35;98818.53;;;13.02;100.00
33280;BME280;20403;43.114;12.434;2023-05-12T04:54:06;98813.25;;;12.97;100.00
33280;BME280;20403;43.114;12.434;2023-05-12T04:56:31;98823.66;;;12.92;100.00
33280;BME280;20403;43.114;12.434;2023-05-12T04:58:57;98813.63;;;13.06;100.00
33280;BME280;20403;43.114;12.434;2023-05-12T05:01:22;98824.50;;;13.20;100.00
33280;BME280;20403;43.114;12.434;2023-05-12T05:03:47;98824.31;;;13.27;100.00
33280;BME280;20403;43.114;12.434;2023-05-12T05:06:13;98825.44;;;13.31;100.00
33280;BME280;20403;43.114;12.434;2023-05-12T05:08:38;98831.03;;;13.39;100.00
33280;BME280;20403;43.114;12.434;2023-05-12T05:11:03;98828.72;;;13.43;100.00
33280;BME280;20403;43.114;12.434;2023-05-12T05:13:29;98825.72;;;13.34;100.00
33280;BME280;20403;43.114;12.434;2023-05-12T05:15:55;98830.66;;;13.31;100.00
33280;BME280;20403;43.114;12.434;2023-05-12T05:18:20;98824.75;;;13.40;100.00
33280;BME280;20403;43.114;12.434;2023-05-12T05:20:46;98832.16;;;13.49;100.00
33280;BME280;20403;43.114;12.434;2023-05-12T05:23:11;98833.22;;;13.48;100.00
33280;BME280;20403;43.114;12.434;2023-05-12T05:25:37;98833.25;;;13.53;100.00
33280;BME280;20403;43.114;12.434;2023-05-12T05:28:03;98836.72;;;13.58;100.00
33280;BME280;20403;43.114;12.434;2023-05-12T05:30:29;98840.97;;;13.64;100.00
33280;BME280;20403;43.114;12.434;2023-05-12T05:32:54;98840.25;;;13.74;100.00
33280;BME280;20403;43.114;12.434;2023-05-12T05:35:19;98843.22;;;13.83;100.00
33280;BME280;20403;43.114;12.434;2023-05-12T05:37:45;98835.44;;;13.93;100.00
33280;BME280;20403;43.114;12.434;2023-05-12T05:40:11;98841.03;;;14.02;100.00
33280;BME280;20403;43.114;12.434;2023-05-12T05:42:36;98838.66;;;14.00;100.00
33280;BME280;20403;43.114;12.434;2023-05-12T05:45:02;98846.56;;;14.05;100.00
33280;BME280;20403;43.114;12.434;2023-05-12T05:47:27;98834.84;;;14.18;100.00
33280;BME280;20403;43.114;12.434;2023-05-12T05:49:53;98843.81;;;14.22;100.00
33280;BME280;20403;43.114;12.434;2023-05-12T05:52:19;98843.28;;;14.25;100.00
33280;BME280;20403;43.114;12.434;2023-05-12T05:54:45;98841.22;;;14.27;100.00
33280;BME280;20403;43.114;12.434;2023-05-12T05:57:10;98840.44;;;14.32;100.00
33280;BME280;20403;43.114;12.434;2023-05-12T05:59:36;98842.59;;;14.35;100.00
33280;BME280;20403;43.114;12.434;2023-05-12T06:02:01;98842.53;;;14.30;100.00
33280;BME280;20403;43.114;12.434;2023-05-12T06:04:27;98851.22;;;14.31;100.00
33280;BME280;20403;43.114;12.434;2023-05-12T06:06:53;98857.03;;;14.38;100.00
33280;BME280;20403;43.114;12.434;2023-05-12T06:09:18;98848.88;;;14.34;100.00
33280;BME280;20403;43.114;12.434;2023-05-12T06:11:44;98852.56;;;14.38;100.00
33280;BME280;20403;43.114;12.434;2023-05-12T06:14:09;98847.88;;;14.40;100.00
33280;BME280;20403;43.114;12.434;2023-05-12T06:16:36;98850.50;;;14.40;100.00
33280;BME280;20403;43.114;12.434;2023-05-12T06:19:01;98857.88;;;14.48;100.00
33280;BME280;20403;43.114;12.434;2023-05-12T06:21:27;98857.13;;;14.53;100.00
33280;BME280;20403;43.114;12.434;2023-05-12T06:23:52;98855.34;;;14.59;100.00
33280;BME280;20403;43.114;12.434;2023-05-12T06:26:18;98853.84;;;14.73;100.00
33280;BME280;20403;43.114;12.434;2023-05-12T06:28:45;98857.59;;;14.82;100.00
33280;BME280;20403;43.114;12.434;2023-05-12T06:31:10;98856.56;;;14.88;100.00
33280;BME280;20403;43.114;12.434;2023-05-12T06:33:36;98862.38;;;14.96;100.00
33280;BME280;20403;43.114;12.434;2023-05-12T06:36:01;98859.22;;;14.99;100.00
33280;BME280;20403;43.114;12.434;2023-05-12T06:38:27;98857.38;;;14.94;100.00
33280;BME280;20403;43.114;12.434;2023-05-12T06:40:52;98867.88;;;14.99;100.00
33280;BME280;20403;43.114;12.434;2023-05-12T06:43:17;98861.06;;;14.93;100.00
33280;BME280;20403;43.114;12.434;2023-05-12T06:45:43;98865.25;;;14.99;100.00
33280;BME280;20403;43.114;12.434;2023-05-12T06:48:09;98867.19;;;15.14;100.00
33280;BME280;20403;43.114;12.434;2023-05-12T06:50:34;98867.75;;;15.31;100.00
33280;BME280;20403;43.114;12.434;2023-05-12T06:53:00;98866.75;;;15.43;100.00
33280;BME280;20403;43.114;12.434;2023-05-12T06:55:26;98862.84;;;15.50;100.00
33280;BME280;20403;43.114;12.434;2023-05-12T06:57:51;98854.41;;;15.48;100.00
33280;BME280;20403;43.114;12.434;2023-05-12T07:00:21;98856.50;;;15.51;100.00
33280;BME280;20403;43.114;12.434;2023-05-12T07:02:47;98862.06;;;15.65;100.00
33280;BME280;20403;43.114;12.434;2023-05-12T07:05:12;98861.00;;;15.66;100.00
33280;BME280;20403;43.114;12.434;2023-05-12T07:07:38;98865.53;;;15.76;100.00
33280;BME280;20403;43.114;12.434;2023-05-12T07:10:04;98871.81;;;15.75;100.00
33280;BME280;20403;43.114;12.434;2023-05-12T07:12:30;98869.97;;;15.70;100.00
33280;BME280;20403;43.114;12.434;2023-05-12T07:14:56;98874.47;;;15.80;100.00
33280;BME280;20403;43.114;12.434;2023-05-12T07:17:22;98877.91;;;16.06;100.00
33280;BME280;20403;43.114;12.434;2023-05-12T07:19:47;98870.00;;;16.22;100.00
33280;BME280;20403;43.114;12.434;2023-05-12T07:22:12;98870.78;;;16.43;100.00
33280;BME280;20403;43.114;12.434;2023-05-12T07:24:38;98866.75;;;16.86;100.00
33280;BME280;20403;43.114;12.434;2023-05-12T07:27:04;98875.84;;;17.25;100.00
33280;BME280;20403;43.114;12.434;2023-05-12T07:29:29;98877.53;;;17.55;100.00
33280;BME280;20403;43.114;12.434;2023-05-12T07:31:55;98874.94;;;17.94;100.00
33280;BME280;20403;43.114;12.434;2023-05-12T07:34:20;98873.69;;;17.87;100.00
33280;BME280;20403;43.114;12.434;2023-05-12T07:36:46;98872.97;;;17.71;100.00
33280;BME280;20403;43.114;12.434;2023-05-12T07:39:11;98868.22;;;17.73;100.00
33280;BME280;20403;43.114;12.434;2023-05-12T07:41:39;98872.31;;;17.94;100.00
33280;BME280;20403;43.114;12.434;2023-05-12T07:44:05;98875.34;;;17.72;100.00
33280;BME280;20403;43.114;12.434;2023-05-12T07:46:31;98878.44;;;17.35;100.00
33280;BME280;20403;43.114;12.434;2023-05-12T07:48:56;98879.31;;;17.64;100.00
33280;BME280;20403;43.114;12.434;2023-05-12T07:51:22;98870.97;;;17.97;100.00
33280;BME280;20403;43.114;12.434;2023-05-12T07:53:47;98860.47;;;18.50;100.00
33280;BME280;20403;43.114;12.434;2023-05-12T07:56:14;98868.63;;;18.54;100.00
33280;BME280;20403;43.114;12.434;2023-05-12T07:58:39;98869.66;;;18.29;100.00
33280;BME280;20403;43.114;12.434;2023-05-12T08:01:05;98880.00;;;17.80;100.00
33280;BME280;20403;43.114;12.434;2023-05-12T08:03:32;98875.97;;;17.54;100.00
33280;BME280;20403;43.114;12.434;2023-05-12T08:05:57;98881.84;;;17.40;100.00
33280;BME280;20403;43.114;12.434;2023-05-12T08:08:23;98876.59;;;17.30;100.00
33280;BME280;20403;43.114;12.434;2023-05-12T08:10:48;98873.63;;;17.47;100.00
33280;BME280;20403;43.114;12.434;2023-05-12T08:13:13;98875.50;;;17.41;100.00
33280;BME280;20403;43.114;12.434;2023-05-12T08:15:39;98884.00;;;17.28;100.00
33280;BME280;20403;43.114;12.434;2023-05-12T08:18:05;98878.69;;;17.38;100.00
33280;BME280;20403;43.114;12.434;2023-05-12T08:20:30;98881.88;;;17.35;100.00
33280;BME280;20403;43.114;12.434;2023-05-12T08:22:56;98874.53;;;17.27;100.00
33280;BME280;20403;43.114;12.434;2023-05-12T08:25:21;98869.91;;;17.53;100.00
33280;BME280;20403;43.114;12.434;2023-05-12T08:27:47;98876.13;;;17.73;100.00
33280;BME280;20403;43.114;12.434;2023-05-12T08:30:13;98869.19;;;18.21;100.00
33280;BME280;20403;43.114;12.434;2023-05-12T08:32:39;98866.75;;;18.30;100.00
33280;BME280;20403;43.114;12.434;2023-05-12T08:35:04;98866.88;;;18.15;100.00
33280;BME280;20403;43.114;12.434;2023-05-12T08:37:30;98862.88;;;17.78;100.00
33280;BME280;20403;43.114;12.434;2023-05-12T08:39:56;98865.91;;;17.61;100.00
33280;BME280;20403;43.114;12.434;2023-05-12T08:42:35;98861.84;;;17.84;100.00
33280;BME280;20403;43.114;12.434;2023-05-12T08:45:02;98850.25;;;18.67;100.00
33280;BME280;20403;43.114;12.434;2023-05-12T08:47:30;98844.47;;;19.51;100.00
33280;BME280;20403;43.114;12.434;2023-05-12T08:50:01;98847.47;;;20.02;100.00
33280;BME280;20403;43.114;12.434;2023-05-12T08:52:36;98846.13;;;20.18;100.00
33280;BME280;20403;43.114;12.434;2023-05-12T08:55:03;98845.38;;;20.31;100.00
33280;BME280;20403;43.114;12.434;2023-05-12T08:57:30;98842.25;;;20.43;100.00
33280;BME280;20403;43.114;12.434;2023-05-12T08:59:56;98835.97;;;20.53;100.00
33280;BME280;20403;43.114;12.434;2023-05-12T09:02:23;98837.97;;;20.14;100.00
33280;BME280;20403;43.114;12.434;2023-05-12T09:04:49;98849.78;;;19.89;100.00
33280;BME280;20403;43.114;12.434;2023-05-12T09:07:17;98838.66;;;20.06;100.00
33280;BME280;20403;43.114;12.434;2023-05-12T09:09:43;98843.25;;;20.14;100.00
33280;BME280;20403;43.114;12.434;2023-05-12T09:12:12;98833.72;;;20.46;100.00
33280;BME280;20403;43.114;12.434;2023-05-12T09:14:39;98837.81;;;19.92;100.00
33280;BME280;20403;43.114;12.434;2023-05-12T09:17:06;98852.34;;;19.94;100.00
33280;BME280;20403;43.114;12.434;2023-05-12T09:19:31;98843.44;;;20.04;100.00
33280;BME280;20403;43.114;12.434;2023-05-12T09:21:59;98843.53;;;19.61;100.00
33280;BME280;20403;43.114;12.434;2023-05-12T09:24:37;98855.22;;;19.41;100.00
33280;BME280;20403;43.114;12.434;2023-05-12T09:27:04;98853.03;;;19.24;100.00
33280;BME280;20403;43.114;12.434;2023-05-12T09:29:30;98842.13;;;19.31;100.00
33280;BME280;20403;43.114;12.434;2023-05-12T09:32:01;98851.75;;;19.41;100.00
33280;BME280;20403;43.114;12.434;2023-05-12T09:34:31;98840.47;;;19.35;100.00
33280;BME280;20403;43.114;12.434;2023-05-12T09:37:01;98824.97;;;19.66;100.00
33280;BME280;20403;43.114;12.434;2023-05-12T09:39:27;98829.31;;;19.95;100.00
33280;BME280;20403;43.114;12.434;2023-05-12T09:41:53;98825.00;;;19.99;100.00
33280;BME280;20403;43.114;12.434;2023-05-12T09:44:19;98815.78;;;20.57;100.00
33280;BME280;20403;43.114;12.434;2023-05-12T09:46:45;98817.94;;;20.69;100.00
33280;BME280;20403;43.114;12.434;2023-05-12T09:49:11;98814.53;;;21.18;98.72
33280;BME280;20403;43.114;12.434;2023-05-12T09:51:37;98813.44;;;21.70;100.00
33280;BME280;20403;43.114;12.434;2023-05-12T09:54:02;98805.78;;;21.99;88.93
33280;BME280;20403;43.114;12.434;2023-05-12T09:56:29;98807.22;;;21.74;78.90
33280;BME280;20403;43.114;12.434;2023-05-12T09:58:57;98794.59;;;21.21;94.90
33280;BME280;20403;43.114;12.434;2023-05-12T10:01:23;98799.53;;;21.14;83.07
33280;BME280;20403;43.114;12.434;2023-05-12T10:03:53;98786.00;;;21.02;74.94
33280;BME280;20403;43.114;12.434;2023-05-12T10:06:46;98785.72;;;21.03;83.95
33280;BME280;20403;43.114;12.434;2023-05-12T10:09:27;98795.63;;;21.34;82.99
33280;BME280;20403;43.114;12.434;2023-05-12T10:11:56;98789.66;;;20.92;77.49
33280;BME280;20403;43.114;12.434;2023-05-12T10:14:22;98797.72;;;20.45;97.87
33280;BME280;20403;43.114;12.434;2023-05-12T10:16:48;98784.38;;;20.64;80.25
33280;BME280;20403;43.114;12.434;2023-05-12T10:19:16;98788.31;;;21.53;83.93
33280;BME280;20403;43.114;12.434;2023-05-12T10:21:42;98781.81;;;21.59;77.52
33280;BME280;20403;43.114;12.434;2023-05-12T10:24:14;98789.91;;;21.77;92.08
33280;BME280;20403;43.114;12.434;2023-05-12T10:26:43;98787.84;;;22.28;81.81
33280;BME280;20403;43.114;12.434;2023-05-12T10:29:09;98804.72;;;21.78;68.66
33280;BME280;20403;43.114;12.434;2023-05-12T10:31:38;98803.13;;;21.99;68.88
33280;BME280;20403;43.114;12.434;2023-05-12T10:34:04;98800.38;;;22.13;62.32
33280;BME280;20403;43.114;12.434;2023-05-12T10:36:42;98798.38;;;22.41;64.82
33280;BME280;20403;43.114;12.434;2023-05-12T10:39:07;98798.28;;;22.73;72.92
33280;BME280;20403;43.114;12.434;2023-05-12T10:41:34;98804.66;;;23.20;70.35
33280;BME280;20403;43.114;12.434;2023-05-12T10:44:00;98806.19;;;22.47;64.18
33280;BME280;20403;43.114;12.434;2023-05-12T10:46:26;98803.84;;;22.45;81.53
33280;BME280;20403;43.114;12.434;2023-05-12T10:49:00;98809.03;;;22.19;77.00
33280;BME280;20403;43.114;12.434;2023-05-12T10:54:09;98829.06;;;21.21;67.69
33280;BME280;20403;43.114;12.434;2023-05-12T10:59:16;98821.09;;;20.57;76.20
33280;BME280;20403;43.114;12.434;2023-05-12T11:02:03;98824.38;;;20.35;76.09
33280;BME280;20403;43.114;12.434;2023-05-12T11:04:55;98829.75;;;20.16;84.42
33280;BME280;20403;43.114;12.434;2023-05-12T11:07:23;98833.25;;;19.79;86.80
33280;BME280;20403;43.114;12.434;2023-05-12T11:09:51;98834.13;;;19.55;92.99
33280;BME280;20403;43.114;12.434;2023-05-12T11:12:18;98840.19;;;19.56;100.00
33280;BME280;20403;43.114;12.434;2023-05-12T11:14:44;98839.13;;;19.38;100.00
33280;BME280;20403;43.114;12.434;2023-05-12T11:17:11;98854.19;;;19.18;100.00
33280;BME280;20403;43.114;12.434;2023-05-12T11:19:37;98846.13;;;18.85;100.00
33280;BME280;20403;43.114;12.434;2023-05-12T11:22:10;98859.22;;;18.72;100.00
33280;BME280;20403;43.114;12.434;2023-05-12T11:24:38;98859.56;;;18.36;100.00
33280;BME280;20403;43.114;12.434;2023-05-12T11:27:05;98870.81;;;18.17;100.00
33280;BME280;20403;43.114;12.434;2023-05-12T11:29:31;98879.91;;;18.01;100.00
33280;BME280;20403;43.114;12.434;2023-05-12T11:31:58;98879.63;;;17.63;100.00
33280;BME280;20403;43.114;12.434;2023-05-12T11:34:26;98884.00;;;17.23;100.00
33280;BME280;20403;43.114;12.434;2023-05-12T11:36:54;98889.16;;;16.78;100.00
33280;BME280;20403;43.114;12.434;2023-05-12T11:39:22;98891.81;;;16.63;100.00
33280;BME280;20403;43.114;12.434;2023-05-12T11:41:48;98890.78;;;16.49;100.00
33280;BME280;20403;43.114;12.434;2023-05-12T11:44:19;98882.59;;;16.60;100.00
33280;BME280;20403;43.114;12.434;2023-05-12T11:47:18;98879.16;;;16.70;100.00
33280;BME280;20403;43.114;12.434;2023-05-12T11:49:48;98882.88;;;16.64;100.00
33280;BME280;20403;43.114;12.434;2023-05-12T11:52:14;98880.47;;;16.68;100.00
33280;BME280;20403;43.114;12.434;2023-05-12T11:54:47;98884.69;;;16.74;100.00
33280;BME280;20403;43.114;12.434;2023-05-12T11:57:23;98886.28;;;16.80;100.00
33280;BME280;20403;43.114;12.434;2023-05-12T11:59:59;98889.16;;;16.78;100.00
33280;BME280;20403;43.114;12.434;2023-05-12T12:02:25;98879.66;;;16.93;100.00
33280;BME280;20403;43.114;12.434;2023-05-12T12:04:50;98883.53;;;17.16;100.00
33280;BME280;20403;43.114;12.434;2023-05-12T12:07:16;98882.44;;;17.22;100.00
33280;BME280;20403;43.114;12.434;2023-05-12T12:09:52;98882.38;;;17.37;100.00
33280;BME280;20403;43.114;12.434;2023-05-12T12:12:17;98884.47;;;17.40;100.00
33280;BME280;20403;43.114;12.434;2023-05-12T12:14:43;98883.88;;;17.54;100.00
33280;BME280;20403;43.114;12.434;2023-05-12T12:17:08;98884.25;;;17.76;100.00
33280;BME280;20403;43.114;12.434;2023-05-12T12:19:33;98887.94;;;17.80;100.00
33280;BME280;20403;43.114;12.434;2023-05-12T12:21:59;98888.94;;;17.90;100.00
33280;BME280;20403;43.114;12.434;2023-05-12T12:24:24;98881.44;;;18.07;100.00
33280;BME280;20403;43.114;12.434;2023-05-12T12:26:51;98884.88;;;18.08;100.00
33280;BME280;20403;43.114;12.434;2023-05-12T12:29:16;98882.66;;;18.20;100.00
33280;BME280;20403;43.114;12.434;2023-05-12T12:31:42;98882.06;;;18.28;100.00
33280;BME280;20403;43.114;12.434;2023-05-12T12:34:08;98874.16;;;18.23;100.00
33280;BME280;20403;43.114;12.434;2023-05-12T12:36:33;98870.81;;;18.17;100.00
33280;BME280;20403;43.114;12.434;2023-05-12T12:39:00;98871.50;;;18.28;100.00
33280;BME280;20403;43.114;12.434;2023-05-12T12:41:25;98865.34;;;18.38;100.00
33280;BME280;20403;43.114;12.434;2023-05-12T12:43:51;98866.88;;;18.44;100.00